Saint Henry, Indiana
Current Conditions -  °F | °C
As of 3:15 AM on Wednesday 28 Jan 2015 (Local Time) from KHNB Reporting Station
Clear Clear  
Wind Chill: 19°   Ceiling: Unl
Heat Index: 25°   Visibility: 10mi
Dew Point: 18°   Wind: 5mph
Humidity: 74%   Direction: 70°ENE
Pressure: 30.31"   Gusts: NA
Location:  38.2418°N, 86.8519°W
Report Text: KHNB 280915Z AUTO 07004KT 10SM CLR M04/M08 A3031 RMK AO1
Loading
Personal Weather Stations






























Interactive Weather Map New forecast layout! Learn more

10-Day Weather Forecast

Advertisements
Track Severe Weather on mobile